sensor_id;sensor_type;location;lat;lon;timestamp;pressure;altitude;pressure_sealevel;temperature;humidity
65359;BME280;52491;45.900;6.346;2023-03-04T00:01:43;93990.03;;;23.34;21.52
65359;BME280;52491;45.900;6.346;2023-03-04T00:04:08;93981.25;;;23.34;21.57
65359;BME280;52491;45.900;6.346;2023-03-04T00:06:34;93988.44;;;23.33;21.66
65359;BME280;52491;45.900;6.346;2023-03-04T00:08:59;93988.69;;;23.32;21.62
65359;BME280;52491;45.900;6.346;2023-03-04T00:11:25;93982.81;;;23.30;21.57
65359;BME280;52491;45.900;6.346;2023-03-04T00:13:51;93982.00;;;23.29;21.57
65359;BME280;52491;45.900;6.346;2023-03-04T00:16:17;93984.66;;;23.29;21.53
65359;BME280;52491;45.900;6.346;2023-03-04T00:18:42;93986.53;;;23.29;21.63
65359;BME280;52491;45.900;6.346;2023-03-04T00:21:08;93984.09;;;23.27;21.54
65359;BME280;52491;45.900;6.346;2023-03-04T00:23:34;93982.28;;;23.28;21.51
65359;BME280;52491;45.900;6.346;2023-03-04T00:25:59;93980.66;;;23.27;21.53
65359;BME280;52491;45.900;6.346;2023-03-04T00:28:25;93984.38;;;23.26;21.47
65359;BME280;52491;45.900;6.346;2023-03-04T00:30:50;93984.63;;;23.24;21.48
65359;BME280;52491;45.900;6.346;2023-03-04T00:33:16;93983.81;;;23.23;21.51
65359;BME280;52491;45.900;6.346;2023-03-04T00:35:42;93985.41;;;23.24;21.49
65359;BME280;52491;45.900;6.346;2023-03-04T00:38:08;93986.75;;;23.22;21.41
65359;BME280;52491;45.900;6.346;2023-03-04T00:40:33;93990.19;;;23.22;21.33
65359;BME280;52491;45.900;6.346;2023-03-04T00:42:59;93987.53;;;23.22;21.49
65359;BME280;52491;45.900;6.346;2023-03-04T00:45:24;93989.13;;;23.23;21.52
65359;BME280;52491;45.900;6.346;2023-03-04T00:47:50;93986.75;;;23.22;21.42
65359;BME280;52491;45.900;6.346;2023-03-04T00:50:16;93985.69;;;23.23;21.48
65359;BME280;52491;45.900;6.346;2023-03-04T00:52:41;93992.06;;;23.22;21.48
65359;BME280;52491;45.900;6.346;2023-03-04T00:55:07;93990.44;;;23.21;21.26
65359;BME280;52491;45.900;6.346;2023-03-04T00:57:34;93982.47;;;23.21;21.53
65359;BME280;52491;45.900;6.346;2023-03-04T00:59:59;93986.19;;;23.20;21.39
65359;BME280;52491;45.900;6.346;2023-03-04T01:02:25;93993.38;;;23.19;21.48
65359;BME280;52491;45.900;6.346;2023-03-04T01:04:50;93983.53;;;23.20;21.44
65359;BME280;52491;45.900;6.346;2023-03-04T01:07:17;93987.78;;;23.21;21.43
65359;BME280;52491;45.900;6.346;2023-03-04T01:09:42;93982.47;;;23.21;21.46
65359;BME280;52491;45.900;6.346;2023-03-04T01:12:08;93979.00;;;23.20;21.46
65359;BME280;52491;45.900;6.346;2023-03-04T01:14:34;93983.25;;;23.21;21.35
65359;BME280;52491;45.900;6.346;2023-03-04T01:17:00;93978.22;;;23.20;21.33
65359;BME280;52491;45.900;6.346;2023-03-04T01:19:26;93977.41;;;23.19;21.36
65359;BME280;52491;45.900;6.346;2023-03-04T01:21:51;93971.03;;;23.20;21.37
65359;BME280;52491;45.900;6.346;2023-03-04T01:24:17;93970.47;;;23.18;21.38
65359;BME280;52491;45.900;6.346;2023-03-04T01:26:42;93977.66;;;23.18;21.37
65359;BME280;52491;45.900;6.346;2023-03-04T01:29:08;93966.78;;;23.19;21.36
65359;BME280;52491;45.900;6.346;2023-03-04T01:31:34;93960.63;;;23.19;21.21
65359;BME280;52491;45.900;6.346;2023-03-04T01:33:59;93956.13;;;23.19;21.30
65359;BME280;52491;45.900;6.346;2023-03-04T01:36:25;93957.16;;;23.18;21.28
65359;BME280;52491;45.900;6.346;2023-03-04T01:38:50;93957.97;;;23.19;21.24
65359;BME280;52491;45.900;6.346;2023-03-04T01:41:20;93959.84;;;23.18;21.22
65359;BME280;52491;45.900;6.346;2023-03-04T01:43:47;93953.72;;;23.18;21.08
65359;BME280;52491;45.900;6.346;2023-03-04T01:46:13;93953.72;;;23.18;21.24
65359;BME280;52491;45.900;6.346;2023-03-04T01:48:42;93948.41;;;23.18;21.21
65359;BME280;52491;45.900;6.346;2023-03-04T01:51:13;93947.31;;;23.19;21.27
65359;BME280;52491;45.900;6.346;2023-03-04T01:53:39;93947.31;;;23.19;21.16
65359;BME280;52491;45.900;6.346;2023-03-04T01:56:14;93953.22;;;23.21;21.21
65359;BME280;52491;45.900;6.346;2023-03-04T01:58:41;93942.56;;;23.21;21.16
65359;BME280;52491;45.900;6.346;2023-03-04T02:01:10;93945.22;;;23.21;21.22
65359;BME280;52491;45.900;6.346;2023-03-04T02:03:36;93940.97;;;23.20;21.27
65359;BME280;52491;45.900;6.346;2023-03-04T02:06:02;93940.97;;;23.20;21.27
65359;BME280;52491;45.900;6.346;2023-03-04T02:08:28;93938.56;;;23.18;21.15
65359;BME280;52491;45.900;6.346;2023-03-04T02:10:54;93936.69;;;23.19;21.31
65359;BME280;52491;45.900;6.346;2023-03-04T02:13:19;93936.16;;;23.17;21.03
65359;BME280;52491;45.900;6.346;2023-03-04T02:15:46;93936.69;;;23.19;21.24
65359;BME280;52491;45.900;6.346;2023-03-04T02:18:20;93940.19;;;23.19;21.15
65359;BME280;52491;45.900;6.346;2023-03-04T02:21:25;93928.47;;;23.20;21.30
65359;BME280;52491;45.900;6.346;2023-03-04T02:26:41;93932.72;;;23.16;21.23
65359;BME280;52491;45.900;6.346;2023-03-04T02:29:09;93934.31;;;23.17;21.21
65359;BME280;52491;45.900;6.346;2023-03-04T02:31:40;93930.03;;;23.16;21.25
65359;BME280;52491;45.900;6.346;2023-03-04T02:34:20;93930.84;;;23.17;21.15
65359;BME280;52491;45.900;6.346;2023-03-04T02:36:47;93925.53;;;23.17;21.15
65359;BME280;52491;45.900;6.346;2023-03-04T02:41:50;93925.53;;;23.17;21.10
65359;BME280;52491;45.900;6.346;2023-03-04T02:44:28;93933.00;;;23.20;21.05
65359;BME280;52491;45.900;6.346;2023-03-04T02:46:55;93916.25;;;23.19;21.11
65359;BME280;52491;45.900;6.346;2023-03-04T02:49:23;93918.06;;;23.19;21.29
65359;BME280;52491;45.900;6.346;2023-03-04T02:51:59;93917.28;;;23.18;21.26
65359;BME280;52491;45.900;6.346;2023-03-04T02:54:25;93919.94;;;23.18;21.07
65359;BME280;52491;45.900;6.346;2023-03-04T02:56:55;93924.22;;;23.19;21.15
65359;BME280;52491;45.900;6.346;2023-03-04T02:59:21;93918.06;;;23.19;21.13
65359;BME280;52491;45.900;6.346;2023-03-04T03:01:48;93919.94;;;23.18;21.20
65359;BME280;52491;45.900;6.346;2023-03-04T03:04:14;93920.72;;;23.19;20.85
65359;BME280;52491;45.900;6.346;2023-03-04T03:06:39;93919.69;;;23.20;20.97
65359;BME280;52491;45.900;6.346;2023-03-04T03:09:06;93918.63;;;23.21;21.13
65359;BME280;52491;45.900;6.346;2023-03-04T03:11:32;93922.91;;;23.22;21.07
65359;BME280;52491;45.900;6.346;2023-03-04T03:13:58;93917.59;;;23.22;21.01
65359;BME280;52491;45.900;6.346;2023-03-04T03:16:24;93913.31;;;23.21;21.14
65359;BME280;52491;45.900;6.346;2023-03-04T03:18:50;93908.78;;;23.21;21.14
65359;BME280;52491;45.900;6.346;2023-03-04T03:21:16;93912.81;;;23.24;21.08
65359;BME280;52491;45.900;6.346;2023-03-04T03:23:41;93915.47;;;23.24;20.99
65359;BME280;52491;45.900;6.346;2023-03-04T03:26:07;93919.19;;;23.23;21.14
65359;BME280;52491;45.900;6.346;2023-03-04T03:28:33;93909.34;;;23.23;21.02
65359;BME280;52491;45.900;6.346;2023-03-04T03:30:59;93917.09;;;23.25;21.06
65359;BME280;52491;45.900;6.346;2023-03-04T03:33:24;93914.16;;;23.27;20.98
65359;BME280;52491;45.900;6.346;2023-03-04T03:35:50;93920.53;;;23.26;21.07
65359;BME280;52491;45.900;6.346;2023-03-04T03:38:16;93920.78;;;23.24;21.07
65359;BME280;52491;45.900;6.346;2023-03-04T03:40:42;93914.66;;;23.23;21.02
65359;BME280;52491;45.900;6.346;2023-03-04T03:43:07;93918.69;;;23.26;21.12
65359;BME280;52491;45.900;6.346;2023-03-04T03:45:33;93912.56;;;23.26;21.07
65359;BME280;52491;45.900;6.346;2023-03-04T03:47:59;93915.22;;;23.26;21.11
65359;BME280;52491;45.900;6.346;2023-03-04T03:50:24;93917.59;;;23.27;21.12
65359;BME280;52491;45.900;6.346;2023-03-04T03:52:50;93914.16;;;23.27;21.11
65359;BME280;52491;45.900;6.346;2023-03-04T03:55:15;93919.47;;;23.27;21.01
65359;BME280;52491;45.900;6.346;2023-03-04T03:57:41;93921.88;;;23.28;21.05
65359;BME280;52491;45.900;6.346;2023-03-04T04:00:08;93921.88;;;23.28;21.06
65359;BME280;52491;45.900;6.346;2023-03-04T04:02:34;93921.88;;;23.28;21.00
65359;BME280;52491;45.900;6.346;2023-03-04T04:05:00;93924.56;;;23.28;20.96
65359;BME280;52491;45.900;6.346;2023-03-04T04:07:25;93916.81;;;23.27;21.11
65359;BME280;52491;45.900;6.346;2023-03-04T04:09:51;93917.88;;;23.26;21.23
65359;BME280;52491;45.900;6.346;2023-03-04T04:12:18;93923.75;;;23.28;21.04
65359;BME280;52491;45.900;6.346;2023-03-04T04:14:44;93922.94;;;23.27;20.98
65359;BME280;52491;45.900;6.346;2023-03-04T04:17:09;93922.94;;;23.27;21.08
65359;BME280;52491;45.900;6.346;2023-03-04T04:19:35;93920.25;;;23.27;20.95
65359;BME280;52491;45.900;6.346;2023-03-04T04:22:02;93916.81;;;23.27;21.08
65359;BME280;52491;45.900;6.346;2023-03-04T04:24:28;93919.47;;;23.27;21.17
65359;BME280;52491;45.900;6.346;2023-03-04T04:26:53;93919.47;;;23.27;21.24
65359;BME280;52491;45.900;6.346;2023-03-04T04:29:19;93928.25;;;23.27;21.14
65359;BME280;52491;45.900;6.346;2023-03-04T04:31:45;93921.88;;;23.28;21.06
65359;BME280;52491;45.900;6.346;2023-03-04T04:34:10;93926.41;;;23.28;21.06
65359;BME280;52491;45.900;6.346;2023-03-04T04:36:36;93929.59;;;23.30;21.12
65359;BME280;52491;45.900;6.346;2023-03-04T04:39:02;93921.88;;;23.28;20.95
65359;BME280;52491;45.900;6.346;2023-03-04T04:41:31;93934.91;;;23.30;21.12
65359;BME280;52491;45.900;6.346;2023-03-04T04:43:59;93934.13;;;23.29;20.95
65359;BME280;52491;45.900;6.346;2023-03-04T04:46:25;93937.84;;;23.28;21.06
65359;BME280;52491;45.900;6.346;2023-03-04T04:48:51;93936.00;;;23.29;21.03
65359;BME280;52491;45.900;6.346;2023-03-04T04:51:16;93937.84;;;23.28;21.14
65359;BME280;52491;45.900;6.346;2023-03-04T04:53:42;93942.91;;;23.30;21.13
65359;BME280;52491;45.900;6.346;2023-03-04T04:56:16;93934.41;;;23.28;21.11
65359;BME280;52491;45.900;6.346;2023-03-04T04:58:43;93932.53;;;23.28;21.07
65359;BME280;52491;45.900;6.346;2023-03-04T05:01:09;93938.66;;;23.29;20.97
65359;BME280;52491;45.900;6.346;2023-03-04T05:03:36;93934.13;;;23.29;21.02
65359;BME280;52491;45.900;6.346;2023-03-04T05:06:03;93933.09;;;23.30;21.00
65359;BME280;52491;45.900;6.346;2023-03-04T05:08:29;93939.19;;;23.31;21.06
65359;BME280;52491;45.900;6.346;2023-03-04T05:10:55;93925.91;;;23.31;21.12
65359;BME280;52491;45.900;6.346;2023-03-04T05:13:21;93932.81;;;23.32;21.07
65359;BME280;52491;45.900;6.346;2023-03-04T05:15:46;93932.03;;;23.31;21.07
65359;BME280;52491;45.900;6.346;2023-03-04T05:18:12;93930.94;;;23.32;21.06
65359;BME280;52491;45.900;6.346;2023-03-04T05:20:38;93935.25;;;23.33;21.04
65359;BME280;52491;45.900;6.346;2023-03-04T05:23:03;93929.09;;;23.33;21.00
65359;BME280;52491;45.900;6.346;2023-03-04T05:25:29;93926.19;;;23.34;20.95
65359;BME280;52491;45.900;6.346;2023-03-04T05:27:55;93928.06;;;23.34;21.10
65359;BME280;52491;45.900;6.346;2023-03-04T05:30:20;93928.06;;;23.34;21.06
65359;BME280;52491;45.900;6.346;2023-03-04T05:32:46;93936.03;;;23.34;21.04
65359;BME280;52491;45.900;6.346;2023-03-04T05:35:12;93933.94;;;23.36;21.13
65359;BME280;52491;45.900;6.346;2023-03-04T05:37:37;93935.53;;;23.37;21.04
65359;BME280;52491;45.900;6.346;2023-03-04T05:40:03;93932.06;;;23.36;21.03
65359;BME280;52491;45.900;6.346;2023-03-04T05:42:30;93934.72;;;23.36;21.00
65359;BME280;52491;45.900;6.346;2023-03-04T05:44:55;93935.25;;;23.38;21.04
65359;BME280;52491;45.900;6.346;2023-03-04T05:47:21;93931.78;;;23.38;20.89
65359;BME280;52491;45.900;6.346;2023-03-04T05:49:47;93937.13;;;23.38;20.94
65359;BME280;52491;45.900;6.346;2023-03-04T05:52:12;93941.13;;;23.40;20.87
65359;BME280;52491;45.900;6.346;2023-03-04T05:54:38;93939.25;;;23.41;20.82
65359;BME280;52491;45.900;6.346;2023-03-04T05:57:04;93929.69;;;23.40;21.01
65359;BME280;52491;45.900;6.346;2023-03-04T05:59:30;93932.34;;;23.40;20.95
65359;BME280;52491;45.900;6.346;2023-03-04T06:01:55;93934.22;;;23.39;20.91
65359;BME280;52491;45.900;6.346;2023-03-04T06:04:21;93938.47;;;23.40;21.08
65359;BME280;52491;45.900;6.346;2023-03-04T06:06:46;93938.47;;;23.40;21.09
65359;BME280;52491;45.900;6.346;2023-03-04T06:09:13;93940.09;;;23.41;21.23
65359;BME280;52491;45.900;6.346;2023-03-04T06:11:39;93951.53;;;23.42;21.23
65359;BME280;52491;45.900;6.346;2023-03-04T06:14:05;93943.53;;;23.42;21.34
65359;BME280;52491;45.900;6.346;2023-03-04T06:16:31;93948.59;;;23.43;21.49
65359;BME280;52491;45.900;6.346;2023-03-04T06:18:57;93949.38;;;23.44;21.54
65359;BME280;52491;45.900;6.346;2023-03-04T06:21:22;93948.59;;;23.43;21.47
65359;BME280;52491;45.900;6.346;2023-03-04T06:23:48;93949.16;;;23.45;21.37
65359;BME280;52491;45.900;6.346;2023-03-04T06:26:14;93956.06;;;23.46;21.55
65359;BME280;52491;45.900;6.346;2023-03-04T06:28:41;93953.41;;;23.46;21.65
65359;BME280;52491;45.900;6.346;2023-03-04T06:31:07;93953.97;;;23.49;21.69
65359;BME280;52491;45.900;6.346;2023-03-04T06:33:33;93955.81;;;23.48;21.80
65359;BME280;52491;45.900;6.346;2023-03-04T06:36:00;93959.03;;;23.50;21.70
65359;BME280;52491;45.900;6.346;2023-03-04T06:38:27;93963.53;;;23.50;21.80
65359;BME280;52491;45.900;6.346;2023-03-04T06:40:53;93960.09;;;23.49;22.08
65359;BME280;52491;45.900;6.346;2023-03-04T06:43:19;93957.19;;;23.51;21.87
65359;BME280;52491;45.900;6.346;2023-03-04T06:45:45;93955.31;;;23.51;21.96
65359;BME280;52491;45.900;6.346;2023-03-04T06:48:11;93960.63;;;23.51;21.98
65359;BME280;52491;45.900;6.346;2023-03-04T06:50:40;93966.50;;;23.53;22.04
65359;BME280;52491;45.900;6.346;2023-03-04T06:53:06;93973.69;;;23.53;22.10
65359;BME280;52491;45.900;6.346;2023-03-04T06:55:32;93969.19;;;23.53;22.25
65359;BME280;52491;45.900;6.346;2023-03-04T06:57:57;93974.22;;;23.55;22.16
65359;BME280;52491;45.900;6.346;2023-03-04T07:00:23;93976.88;;;23.55;22.33
65359;BME280;52491;45.900;6.346;2023-03-04T07:02:50;93982.75;;;23.57;22.31
65359;BME280;52491;45.900;6.346;2023-03-04T07:05:15;93980.09;;;23.57;22.34
65359;BME280;52491;45.900;6.346;2023-03-04T07:07:41;93980.91;;;23.57;22.34
65359;BME280;52491;45.900;6.346;2023-03-04T07:10:07;93986.22;;;23.57;22.35
65359;BME280;52491;45.900;6.346;2023-03-04T07:12:35;93990.75;;;23.57;22.29
65359;BME280;52491;45.900;6.346;2023-03-04T07:15:01;93994.22;;;23.57;22.44
65359;BME280;52491;45.900;6.346;2023-03-04T07:17:26;93989.69;;;23.58;22.33
65359;BME280;52491;45.900;6.346;2023-03-04T07:19:52;93996.63;;;23.59;22.42
65359;BME280;52491;45.900;6.346;2023-03-04T07:22:18;93990.25;;;23.60;22.27
65359;BME280;52491;45.900;6.346;2023-03-04T07:24:43;93991.31;;;23.59;22.35
65359;BME280;52491;45.900;6.346;2023-03-04T07:27:09;93988.38;;;23.60;22.45
65359;BME280;52491;45.900;6.346;2023-03-04T07:29:34;93992.91;;;23.60;22.29
65359;BME280;52491;45.900;6.346;2023-03-04T07:32:00;93997.97;;;23.61;22.30
65359;BME280;52491;45.900;6.346;2023-03-04T07:34:25;94001.44;;;23.62;22.12
65359;BME280;52491;45.900;6.346;2023-03-04T07:36:51;93998.22;;;23.60;22.24
65359;BME280;52491;45.900;6.346;2023-03-04T07:39:17;93996.63;;;23.59;22.17
65359;BME280;52491;45.900;6.346;2023-03-04T07:41:43;94001.16;;;23.58;22.45
65359;BME280;52491;45.900;6.346;2023-03-04T07:44:10;94001.94;;;23.59;22.52
65359;BME280;52491;45.900;6.346;2023-03-04T07:46:36;94000.09;;;23.59;22.35
65359;BME280;52491;45.900;6.346;2023-03-04T07:49:02;94004.59;;;23.59;22.39
65359;BME280;52491;45.900;6.346;2023-03-04T07:51:28;94001.94;;;23.59;22.38
65359;BME280;52491;45.900;6.346;2023-03-04T07:53:58;93999.03;;;23.60;22.34
65359;BME280;52491;45.900;6.346;2023-03-04T07:56:28;94000.88;;;23.60;22.34
65359;BME280;52491;45.900;6.346;2023-03-04T07:58:55;94005.41;;;23.59;22.12
65359;BME280;52491;45.900;6.346;2023-03-04T08:01:27;94013.13;;;23.61;22.29
65359;BME280;52491;45.900;6.346;2023-03-04T08:03:53;94013.38;;;23.59;22.21
65359;BME280;52491;45.900;6.346;2023-03-04T08:06:20;94017.66;;;23.60;22.32
65359;BME280;52491;45.900;6.346;2023-03-04T08:08:47;94017.66;;;23.60;22.34
65359;BME280;52491;45.900;6.346;2023-03-04T08:11:19;94012.31;;;23.60;22.28
65359;BME280;52491;45.900;6.346;2023-03-04T08:13:45;94018.72;;;23.59;22.30
65359;BME280;52491;45.900;6.346;2023-03-04T08:16:18;94020.59;;;23.59;22.34
65359;BME280;52491;45.900;6.346;2023-03-04T08:18:46;94022.69;;;23.57;22.33
65359;BME280;52491;45.900;6.346;2023-03-04T08:21:16;94025.91;;;23.59;22.28
65359;BME280;52491;45.900;6.346;2023-03-04T08:23:44;94026.16;;;23.57;22.36
65359;BME280;52491;45.900;6.346;2023-03-04T08:26:17;94026.69;;;23.59;22.28
65359;BME280;52491;45.900;6.346;2023-03-04T08:28:43;94030.66;;;23.57;22.13
65359;BME280;52491;45.900;6.346;2023-03-04T08:31:12;94026.94;;;23.58;22.17
65359;BME280;52491;45.900;6.346;2023-03-04T08:33:38;94023.47;;;23.57;22.40
65359;BME280;52491;45.900;6.346;2023-03-04T08:36:04;94029.88;;;23.56;22.22
65359;BME280;52491;45.900;6.346;2023-03-04T08:38:29;94034.13;;;23.57;22.34
65359;BME280;52491;45.900;6.346;2023-03-04T08:40:56;94026.16;;;23.57;22.24
65359;BME280;52491;45.900;6.346;2023-03-04T08:43:23;94040.25;;;23.58;22.14
65359;BME280;52491;45.900;6.346;2023-03-04T08:45:49;94037.59;;;23.58;22.21
65359;BME280;52491;45.900;6.346;2023-03-04T08:48:17;94042.66;;;23.59;22.21
65359;BME280;52491;45.900;6.346;2023-03-04T08:50:44;94039.22;;;23.59;22.22
65359;BME280;52491;45.900;6.346;2023-03-04T08:53:10;94046.41;;;23.58;22.14
65359;BME280;52491;45.900;6.346;2023-03-04T08:55:37;94038.41;;;23.58;22.13
65359;BME280;52491;45.900;6.346;2023-03-04T08:58:03;94042.91;;;23.58;22.14
65359;BME280;52491;45.900;6.346;2023-03-04T09:00:30;94046.41;;;23.58;22.11
65359;BME280;52491;45.900;6.346;2023-03-04T09:02:55;94039.72;;;23.56;21.64
65359;BME280;52491;45.900;6.346;2023-03-04T09:05:21;94049.81;;;23.54;21.68
65359;BME280;52491;45.900;6.346;2023-03-04T09:07:46;94044.47;;;23.54;21.79
65359;BME280;52491;45.900;6.346;2023-03-04T09:10:12;94039.16;;;23.54;21.85
65359;BME280;52491;45.900;6.346;2023-03-04T09:12:38;94035.44;;;23.55;21.86
65359;BME280;52491;45.900;6.346;2023-03-04T09:15:04;94035.44;;;23.55;21.91
65359;BME280;52491;45.900;6.346;2023-03-04T09:17:31;94033.31;;;23.57;21.90
65359;BME280;52491;45.900;6.346;2023-03-04T09:19:57;94036.78;;;23.57;21.89
65359;BME280;52491;45.900;6.346;2023-03-04T09:22:22;94042.38;;;23.56;21.96
65359;BME280;52491;45.900;6.346;2023-03-04T09:24:48;94040.50;;;23.56;21.91
65359;BME280;52491;45.900;6.346;2023-03-04T09:27:14;94046.88;;;23.55;22.17
65359;BME280;52491;45.900;6.346;2023-03-04T09:29:39;94037.06;;;23.56;22.18
65359;BME280;52491;45.900;6.346;2023-03-04T09:32:05;94039.72;;;23.56;22.14
65359;BME280;52491;45.900;6.346;2023-03-04T09:34:31;94029.59;;;23.58;22.14
65359;BME280;52491;45.900;6.346;2023-03-04T09:36:56;94034.91;;;23.58;22.11
65359;BME280;52491;45.900;6.346;2023-03-04T09:39:22;94025.91;;;23.59;22.19
65359;BME280;52491;45.900;6.346;2023-03-04T09:41:49;94032.81;;;23.60;22.13
65359;BME280;52491;45.900;6.346;2023-03-04T09:44:23;94032.81;;;23.60;22.21
65359;BME280;52491;45.900;6.346;2023-03-04T09:46:50;94032.81;;;23.60;22.33
65359;BME280;52491;45.900;6.346;2023-03-04T09:49:18;94038.94;;;23.60;22.32
65359;BME280;52491;45.900;6.346;2023-03-04T10:00:20;94023.78;;;23.61;22.15
65359;BME280;52491;45.900;6.346;2023-03-04T10:05:33;94021.38;;;23.59;22.05
65359;BME280;52491;45.900;6.346;2023-03-04T10:08:35;94021.63;;;23.58;22.06
65359;BME280;52491;45.900;6.346;2023-03-04T10:11:08;94013.09;;;23.56;21.90
65359;BME280;52491;45.900;6.346;2023-03-04T10:13:55;94014.41;;;23.53;21.97
65359;BME280;52491;45.900;6.346;2023-03-04T10:16:25;94014.41;;;23.53;22.09
65359;BME280;52491;45.900;6.346;2023-03-04T10:18:57;94016.81;;;23.55;21.83
65359;BME280;52491;45.900;6.346;2023-03-04T10:21:31;94008.81;;;23.55;21.79
65359;BME280;52491;45.900;6.346;2023-03-04T10:24:04;93998.97;;;23.55;21.44
65359;BME280;52491;45.900;6.346;2023-03-04T10:26:33;94001.63;;;23.55;21.83
65359;BME280;52491;45.900;6.346;2023-03-04T10:28:58;94000.31;;;23.53;21.33
65359;BME280;52491;45.900;6.346;2023-03-04T10:31:37;93996.75;;;23.42;21.28
65359;BME280;52491;45.900;6.346;2023-03-04T10:34:03;93999.66;;;23.40;20.97
65359;BME280;52491;45.900;6.346;2023-03-04T10:39:19;93981.09;;;23.45;21.31
65359;BME280;52491;45.900;6.346;2023-03-04T10:41:59;93985.34;;;23.46;21.35
65359;BME280;52491;45.900;6.346;2023-03-04T10:44:26;93982.69;;;23.46;21.41
65359;BME280;52491;45.900;6.346;2023-03-04T10:46:53;93982.16;;;23.50;21.43
65359;BME280;52491;45.900;6.346;2023-03-04T10:49:20;93972.34;;;23.50;21.42
65359;BME280;52491;45.900;6.346;2023-03-04T10:51:48;93968.63;;;23.51;21.58
65359;BME280;52491;45.900;6.346;2023-03-04T10:54:40;93970.78;;;23.54;21.47
65359;BME280;52491;45.900;6.346;2023-03-04T10:59:48;93960.69;;;23.56;21.36
65359;BME280;52491;45.900;6.346;2023-03-04T11:02:22;93958.56;;;23.58;21.39
65359;BME280;52491;45.900;6.346;2023-03-04T11:07:23;93951.91;;;23.61;21.44
65359;BME280;52491;45.900;6.346;2023-03-04T11:09:49;93944.47;;;23.63;21.50
65359;BME280;52491;45.900;6.346;2023-03-04T11:12:18;93946.09;;;23.64;21.57
65359;BME280;52491;45.900;6.346;2023-03-04T11:14:50;93943.44;;;23.64;21.70
65359;BME280;52491;45.900;6.346;2023-03-04T11:19:46;93937.84;;;23.65;21.67
65359;BME280;52491;45.900;6.346;2023-03-04T11:22:15;93934.13;;;23.66;21.84
65359;BME280;52491;45.900;6.346;2023-03-04T11:24:42;93929.63;;;23.67;22.00
65359;BME280;52491;45.900;6.346;2023-03-04T11:27:18;93922.97;;;23.70;21.67
65359;BME280;52491;45.900;6.346;2023-03-04T11:30:02;93922.75;;;23.71;21.99
65359;BME280;52491;45.900;6.346;2023-03-04T11:32:35;93921.38;;;23.68;21.97
65359;BME280;52491;45.900;6.346;2023-03-04T11:37:38;93907.56;;;23.72;22.08
65359;BME280;52491;45.900;6.346;2023-03-04T11:42:55;93902.25;;;23.72;22.22
65359;BME280;52491;45.900;6.346;2023-03-04T11:45:49;93894.81;;;23.74;22.16
65359;BME280;52491;45.900;6.346;2023-03-04T11:48:37;93879.09;;;23.72;22.29
65359;BME280;52491;45.900;6.346;2023-03-04T11:54:38;93876.44;;;23.77;22.45
65359;BME280;52491;45.900;6.346;2023-03-04T12:03:26;93877.00;;;23.79;22.14
65359;BME280;52491;45.900;6.346;2023-03-04T12:11:33;93865.03;;;23.82;22.44
65359;BME280;52491;45.900;6.346;2023-03-04T12:20:32;93855.19;;;23.82;22.42
65359;BME280;52491;45.900;6.346;2023-03-04T12:26:07;93852.53;;;23.82;22.46
65359;BME280;52491;45.900;6.346;2023-03-04T12:31:35;93844.03;;;23.90;22.31
65359;BME280;52491;45.900;6.346;2023-03-04T12:34:28;93841.94;;;23.93;21.94
65359;BME280;52491;45.900;6.346;2023-03-04T12:37:08;93834.97;;;23.92;21.78
65359;BME280;52491;45.900;6.346;2023-03-04T12:39:50;93827.53;;;23.94;21.60
65359;BME280;52491;45.900;6.346;2023-03-04T12:57:08;93801.44;;;23.90;21.56
65359;BME280;52491;45.900;6.346;2023-03-04T12:59:18;93803.03;;;23.92;21.38
65359;BME280;52491;45.900;6.346;2023-03-04T13:02:02;93806.78;;;23.90;21.40
65359;BME280;52491;45.900;6.346;2023-03-04T13:05:02;93801.44;;;23.90;21.17
65359;BME280;52491;45.900;6.346;2023-03-04T13:10:28;93795.88;;;23.92;21.47
65359;BME280;52491;45.900;6.346;2023-03-04T13:12:56;93794.56;;;23.95;21.42
65359;BME280;52491;45.900;6.346;2023-03-04T13:17:52;93797.47;;;23.98;21.55
65359;BME280;52491;45.900;6.346;2023-03-04T13:20:40;93799.88;;;24.00;21.47
65359;BME280;52491;45.900;6.346;2023-03-04T13:25:47;93788.41;;;23.99;21.68
65359;BME280;52491;45.900;6.346;2023-03-04T13:35:57;93776.44;;;24.02;21.53
65359;BME280;52491;45.900;6.346;2023-03-04T13:41:17;93779.66;;;24.04;21.62
65359;BME280;52491;45.900;6.346;2023-03-04T13:43:50;93777.25;;;24.02;21.69
65359;BME280;52491;45.900;6.346;2023-03-04T13:56:31;93781.50;;;23.98;21.40
65359;BME280;52491;45.900;6.346;2023-03-04T14:01:34;93771.13;;;24.02;21.48
65359;BME280;52491;45.900;6.346;2023-03-04T14:04:15;93772.72;;;24.03;21.63
65359;BME280;52491;45.900;6.346;2023-03-04T14:06:42;93777.25;;;24.02;21.67
65359;BME280;52491;45.900;6.346;2023-03-04T14:11:46;93775.91;;;24.05;21.73
65359;BME280;52491;45.900;6.346;2023-03-04T14:14:15;93772.22;;;24.06;21.79
65359;BME280;52491;45.900;6.346;2023-03-04T14:17:03;93772.72;;;24.08;21.79
65359;BME280;52491;45.900;6.346;2023-03-04T14:19:37;93768.47;;;24.07;21.68
65359;BME280;52491;45.900;6.346;2023-03-04T14:22:36;93765.53;;;24.08;21.57
65359;BME280;52491;45.900;6.346;2023-03-04T14:27:34;93751.16;;;24.09;21.87
65359;BME280;52491;45.900;6.346;2023-03-04T14:30:05;93756.50;;;24.09;21.75
65359;BME280;52491;45.900;6.346;2023-03-04T14:32:31;93751.41;;;24.08;21.72
65359;BME280;52491;45.900;6.346;2023-03-04T14:35:00;93756.50;;;24.09;21.62
65359;BME280;52491;45.900;6.346;2023-03-04T14:37:40;93752.75;;;24.10;21.77
65359;BME280;52491;45.900;6.346;2023-03-04T14:40:17;93747.19;;;24.12;21.62
65359;BME280;52491;45.900;6.346;2023-03-04T14:42:44;93743.72;;;24.11;21.72
65359;BME280;52491;45.900;6.346;2023-03-04T14:45:14;93738.91;;;24.13;21.37
65359;BME280;52491;45.900;6.346;2023-03-04T14:47:42;93738.91;;;24.13;21.54
65359;BME280;52491;45.900;6.346;2023-03-04T14:50:16;93728.25;;;24.13;21.56
65359;BME280;52491;45.900;6.346;2023-03-04T14:52:47;93737.31;;;24.12;21.77
65359;BME280;52491;45.900;6.346;2023-03-04T14:58:07;93735.47;;;24.13;21.78
65359;BME280;52491;45.900;6.346;2023-03-04T15:00:34;93735.47;;;24.13;21.48